createdAt,value
2022-08-17T00:00:43.957Z,90.00
2022-08-17T00:03:00.729Z,90.10
2022-08-17T00:05:29.377Z,89.60
2022-08-17T00:07:56.275Z,89.40
2022-08-17T00:10:22.850Z,89.20
2022-08-17T00:12:49.399Z,89.30
2022-08-17T00:15:16.025Z,89.50
2022-08-17T00:17:42.749Z,89.50
2022-08-17T00:20:09.336Z,89.50
2022-08-17T00:22:36.802Z,89.50
2022-08-17T00:25:03.536Z,89.60
2022-08-17T00:27:30.075Z,89.40
2022-08-17T00:29:56.759Z,89.30
2022-08-17T00:33:15.191Z,89.20
2022-08-17T00:35:09.944Z,89.10
2022-08-17T00:37:36.477Z,89.10
2022-08-17T00:40:03.116Z,89.10
2022-08-17T00:42:31.215Z,90.00
2022-08-17T00:44:58.040Z,90.30
2022-08-17T00:47:24.593Z,90.30
2022-08-17T00:49:51.177Z,90.40
2022-08-17T00:52:20.024Z,90.50
2022-08-17T00:54:46.583Z,90.50
2022-08-17T00:57:13.114Z,90.70
2022-08-17T00:59:39.657Z,91.00
2022-08-17T01:02:06.279Z,91.10
2022-08-17T01:04:33.343Z,91.20
2022-08-17T01:07:00.596Z,91.50
2022-08-17T01:09:27.221Z,91.60
2022-08-17T01:11:53.791Z,91.50
2022-08-17T01:14:21.105Z,91.50
2022-08-17T01:16:47.762Z,91.50
2022-08-17T01:19:14.350Z,91.50
2022-08-17T01:21:40.917Z,91.50
2022-08-17T01:24:07.503Z,91.50
2022-08-17T01:26:34.281Z,91.80
2022-08-17T01:29:00.892Z,91.80
2022-08-17T01:31:27.659Z,91.60
2022-08-17T01:33:54.473Z,91.90
2022-08-17T01:36:21.184Z,91.80
2022-08-17T01:38:47.708Z,91.80
2022-08-17T01:41:14.279Z,91.70
2022-08-17T01:43:40.916Z,91.70
2022-08-17T01:46:07.950Z,91.80
2022-08-17T01:48:34.520Z,91.90
2022-08-17T01:51:01.138Z,91.90
2022-08-17T01:53:28.504Z,91.90
2022-08-17T01:55:55.144Z,92.00
2022-08-17T01:58:21.723Z,92.10
2022-08-17T02:01:00.226Z,92.00
2022-08-17T02:03:27.757Z,92.10
2022-08-17T02:05:54.348Z,92.20
2022-08-17T02:08:20.922Z,92.20
2022-08-17T02:11:05.180Z,92.30
2022-08-17T02:13:38.012Z,92.60
2022-08-17T02:16:04.611Z,92.30
2022-08-17T02:18:31.189Z,92.50
2022-08-17T02:20:57.759Z,92.60
2022-08-17T02:23:24.302Z,92.70
2022-08-17T02:25:50.868Z,92.70
2022-08-17T02:28:17.426Z,92.80
2022-08-17T02:30:50.094Z,92.70
2022-08-17T02:33:41.999Z,92.70
2022-08-17T02:36:09.916Z,92.70
2022-08-17T02:38:36.481Z,92.70
2022-08-17T02:41:03.046Z,92.60
2022-08-17T02:43:29.773Z,92.60
2022-08-17T02:45:56.331Z,92.40
2022-08-17T02:48:30.985Z,92.30
2022-08-17T02:50:58.316Z,92.20
2022-08-17T02:53:25.615Z,92.20
2022-08-17T02:55:52.454Z,92.10
2022-08-17T02:58:29.658Z,92.00
2022-08-17T03:01:03.201Z,91.90
2022-08-17T03:03:29.788Z,92.20
2022-08-17T03:05:56.334Z,92.00
2022-08-17T03:08:23.314Z,92.10
2022-08-17T03:10:50.358Z,92.20
2022-08-17T03:13:17.254Z,92.30
2022-08-17T03:15:45.110Z,92.40
2022-08-17T03:18:11.831Z,92.50
2022-08-17T03:20:50.957Z,92.60
2022-08-17T03:23:17.604Z,92.70
2022-08-17T03:25:46.389Z,92.80
2022-08-17T03:28:13.074Z,92.90
2022-08-17T03:30:40.078Z,92.90
2022-08-17T03:33:06.692Z,93.00
2022-08-17T03:35:33.242Z,93.10
2022-08-17T03:38:00.778Z,93.20
2022-08-17T03:40:55.200Z,93.30
2022-08-17T03:43:14.282Z,93.20
2022-08-17T03:46:05.833Z,93.10
2022-08-17T03:49:05.581Z,93.20
2022-08-17T03:51:51.023Z,93.30
2022-08-17T03:54:36.413Z,93.30
2022-08-17T03:57:03.061Z,93.20
2022-08-17T03:59:29.646Z,93.30
2022-08-17T04:01:56.385Z,93.30
2022-08-17T04:04:27.438Z,93.40
2022-08-17T04:06:54.380Z,93.40
2022-08-17T04:09:20.938Z,93.40
2022-08-17T04:11:47.573Z,93.30
2022-08-17T04:14:14.183Z,93.80
2022-08-17T04:16:41.125Z,93.50
2022-08-17T04:19:07.682Z,93.60
2022-08-17T04:21:34.402Z,93.60
2022-08-17T04:24:01.047Z,93.60
2022-08-17T04:26:54.101Z,93.70
2022-08-17T04:29:16.678Z,93.40
2022-08-17T04:31:43.260Z,93.50
2022-08-17T04:34:10.071Z,93.50
2022-08-17T04:36:36.691Z,93.60
2022-08-17T04:39:03.301Z,93.70
2022-08-17T04:41:48.533Z,93.40
2022-08-17T04:44:15.215Z,93.50
2022-08-17T04:46:54.848Z,93.50
2022-08-17T04:49:21.444Z,93.60
2022-08-17T04:51:56.142Z,93.70
2022-08-17T04:54:23.557Z,93.60
2022-08-17T04:56:50.127Z,93.80
2022-08-17T04:59:16.741Z,93.80
2022-08-17T05:01:43.923Z,93.90
2022-08-17T05:04:33.120Z,93.80
2022-08-17T05:06:57.183Z,93.50
2022-08-17T05:09:23.799Z,93.10
2022-08-17T05:11:51.119Z,93.10
2022-08-17T05:14:17.715Z,93.20
2022-08-17T05:16:45.724Z,93.20
2022-08-17T05:19:12.282Z,93.20
2022-08-17T05:21:38.821Z,93.00
2022-08-17T05:24:06.066Z,93.10
2022-08-17T05:26:52.011Z,93.10
2022-08-17T05:29:18.997Z,93.00
2022-08-17T05:31:45.651Z,92.90
2022-08-17T05:34:12.297Z,92.80
2022-08-17T05:36:44.060Z,92.70
2022-08-17T05:39:16.624Z,92.60
2022-08-17T05:41:44.144Z,92.30
2022-08-17T05:44:10.954Z,92.00
2022-08-17T05:46:37.566Z,92.00
2022-08-17T05:49:04.137Z,91.90
2022-08-17T05:51:30.705Z,91.90
2022-08-17T05:53:57.500Z,91.60
2022-08-17T05:56:29.765Z,91.40
2022-08-17T05:58:57.188Z,91.30
2022-08-17T06:01:23.761Z,91.40
2022-08-17T06:03:50.410Z,92.30
2022-08-17T06:06:17.009Z,91.80
2022-08-17T06:08:44.623Z,91.30
2022-08-17T06:11:11.213Z,91.10
2022-08-17T06:13:38.566Z,91.00
2022-08-17T06:16:05.130Z,90.80
2022-08-17T06:18:51.863Z,90.70
2022-08-17T06:21:18.387Z,90.80
2022-08-17T06:23:50.261Z,91.00
2022-08-17T06:26:16.813Z,91.30
2022-08-17T06:28:43.349Z,91.50
2022-08-17T06:31:10.263Z,91.10
2022-08-17T06:33:36.816Z,90.70
2022-08-17T06:36:09.297Z,90.70
2022-08-17T06:38:37.665Z,91.10
2022-08-17T06:41:05.269Z,91.80
2022-08-17T06:43:32.606Z,91.80
2022-08-17T06:45:59.326Z,91.40
2022-08-17T06:48:25.954Z,90.40
2022-08-17T06:50:53.349Z,90.30
2022-08-17T06:53:20.402Z,90.20
2022-08-17T06:55:46.964Z,89.70
2022-08-17T06:58:16.599Z,90.40
2022-08-17T07:00:43.660Z,90.10
2022-08-17T07:03:11.062Z,90.10
2022-08-17T07:05:37.654Z,90.30
2022-08-17T07:08:05.539Z,89.30
2022-08-17T07:10:32.190Z,89.80
2022-08-17T07:12:58.766Z,90.00
2022-08-17T07:15:25.328Z,90.20
2022-08-17T07:17:52.154Z,90.50
2022-08-17T07:20:20.385Z,90.60
2022-08-17T07:22:57.493Z,90.50
2022-08-17T07:25:27.428Z,90.70
2022-08-17T07:27:54.068Z,90.30
2022-08-17T07:30:20.714Z,89.70
2022-08-17T07:32:47.314Z,90.00
2022-08-17T07:35:15.426Z,90.10
2022-08-17T07:37:42.335Z,89.40
2022-08-17T07:40:15.863Z,88.90
2022-08-17T07:42:46.730Z,89.30
2022-08-17T07:45:33.391Z,89.30
2022-08-17T07:48:18.577Z,89.70
2022-08-17T07:50:49.369Z,90.00
2022-08-17T07:53:17.593Z,89.10
2022-08-17T07:55:45.254Z,89.20
2022-08-17T07:58:12.858Z,89.00
2022-08-17T08:00:39.401Z,87.80
2022-08-17T08:03:06.173Z,89.10
2022-08-17T08:05:50.286Z,88.90
2022-08-17T08:08:17.476Z,88.60
2022-08-17T08:10:45.213Z,88.90
2022-08-17T08:13:14.171Z,90.00
2022-08-17T08:15:45.093Z,88.60
2022-08-17T08:18:53.672Z,88.70
2022-08-17T08:21:08.725Z,88.70
2022-08-17T08:23:35.706Z,87.00
2022-08-17T08:26:02.292Z,86.80
2022-08-17T08:28:29.509Z,87.80
2022-08-17T08:30:56.049Z,85.00
2022-08-17T08:33:22.603Z,84.40
2022-08-17T08:35:49.220Z,85.00
2022-08-17T08:38:15.812Z,85.30
2022-08-17T08:40:42.379Z,85.50
2022-08-17T08:43:08.932Z,85.10
2022-08-17T08:45:35.835Z,82.90
2022-08-17T08:48:05.509Z,83.80
2022-08-17T08:50:36.917Z,84.40
2022-08-17T08:53:04.981Z,81.80
2022-08-17T08:55:34.537Z,80.40
2022-08-17T08:58:01.158Z,80.10
2022-08-17T09:00:27.817Z,80.10
2022-08-17T09:02:54.381Z,78.20
2022-08-17T09:05:20.940Z,79.80
2022-08-17T09:07:47.539Z,76.90
2022-08-17T09:10:14.745Z,77.50
2022-08-17T09:12:41.566Z,78.50
2022-08-17T09:15:12.756Z,74.90
2022-08-17T09:17:39.609Z,76.40
2022-08-17T09:20:06.295Z,74.70
2022-08-17T09:22:32.847Z,74.30
2022-08-17T09:25:00.826Z,71.80
2022-08-17T09:27:28.147Z,69.60
2022-08-17T09:29:57.596Z,70.60
2022-08-17T09:32:24.168Z,69.50
2022-08-17T09:34:51.020Z,70.00
2022-08-17T09:37:19.216Z,71.00
2022-08-17T09:39:45.871Z,70.60
2022-08-17T09:42:12.464Z,71.10
2022-08-17T09:44:39.270Z,71.20
2022-08-17T09:47:05.906Z,70.70
2022-08-17T09:49:32.464Z,72.10
2022-08-17T09:51:58.980Z,72.70
2022-08-17T09:54:41.008Z,71.70
2022-08-17T09:57:28.517Z,72.60
2022-08-17T09:59:54.177Z,72.90
2022-08-17T10:02:20.751Z,72.10
2022-08-17T10:04:47.680Z,73.10
2022-08-17T10:07:14.232Z,72.40
2022-08-17T10:09:40.757Z,72.20
2022-08-17T10:12:17.300Z,71.60
2022-08-17T10:14:44.687Z,71.90
2022-08-17T10:17:20.351Z,72.20
2022-08-17T10:19:46.935Z,72.20
2022-08-17T10:22:34.921Z,72.60
2022-08-17T10:25:26.105Z,72.40
2022-08-17T10:28:00.319Z,73.10
2022-08-17T10:30:27.129Z,73.20
2022-08-17T10:32:56.534Z,72.70
2022-08-17T10:35:25.632Z,73.00
2022-08-17T10:37:52.321Z,73.60
2022-08-17T10:40:19.019Z,73.70
2022-08-17T10:42:46.009Z,74.10
2022-08-17T10:45:13.858Z,73.30
2022-08-17T10:47:54.945Z,73.90
2022-08-17T10:50:22.244Z,73.60
2022-08-17T10:52:48.962Z,73.90
2022-08-17T10:55:15.542Z,74.40
2022-08-17T10:57:42.126Z,74.20
2022-08-17T11:00:10.366Z,74.90
2022-08-17T11:02:36.978Z,73.90
2022-08-17T11:05:03.508Z,73.50
2022-08-17T11:07:30.057Z,73.50
2022-08-17T11:09:56.568Z,74.10
2022-08-17T11:12:23.875Z,74.60
2022-08-17T11:14:50.428Z,75.30
2022-08-17T11:17:16.967Z,74.60
2022-08-17T11:19:43.482Z,75.70
2022-08-17T11:22:10.007Z,74.90
2022-08-17T11:24:36.599Z,75.30
2022-08-17T11:27:03.270Z,75.30
2022-08-17T11:29:29.816Z,75.40
2022-08-17T11:32:00.903Z,75.90
2022-08-17T11:34:27.519Z,75.50
2022-08-17T11:36:54.116Z,75.20
2022-08-17T11:39:20.683Z,76.20
2022-08-17T11:41:48.696Z,75.40
2022-08-17T11:44:15.324Z,76.00
2022-08-17T11:47:00.665Z,76.40
2022-08-17T11:49:50.426Z,75.80
2022-08-17T11:52:16.968Z,75.50
2022-08-17T11:54:45.129Z,74.70
2022-08-17T11:57:11.737Z,75.30
2022-08-17T11:59:45.230Z,74.60
2022-08-17T12:02:11.852Z,78.40
2022-08-17T12:04:38.451Z,79.40
2022-08-17T12:07:05.105Z,79.50
2022-08-17T12:09:31.689Z,80.30
2022-08-17T12:12:12.571Z,79.80
2022-08-17T12:15:08.508Z,79.50
2022-08-17T12:17:41.107Z,80.10
2022-08-17T12:20:14.894Z,80.80
2022-08-17T12:22:41.538Z,80.40
2022-08-17T12:25:08.819Z,80.50
2022-08-17T12:28:04.424Z,80.50
2022-08-17T12:30:22.015Z,80.50
2022-08-17T12:32:48.642Z,82.20
2022-08-17T12:35:15.835Z,82.60
2022-08-17T12:37:42.387Z,83.20
2022-08-17T12:40:09.005Z,85.30
2022-08-17T12:42:37.200Z,84.60
2022-08-17T12:45:03.903Z,83.70
2022-08-17T12:47:31.985Z,82.30
2022-08-17T12:49:59.023Z,81.20
2022-08-17T12:52:25.631Z,82.30
2022-08-17T12:54:52.493Z,83.70
2022-08-17T12:57:19.538Z,82.50
2022-08-17T12:59:46.147Z,82.90
2022-08-17T13:02:12.824Z,81.50
2022-08-17T13:04:39.765Z,82.00
2022-08-17T13:07:06.813Z,82.40
2022-08-17T13:09:40.273Z,81.90
2022-08-17T13:12:07.733Z,80.70
2022-08-17T13:14:35.091Z,80.10
2022-08-17T13:17:01.633Z,79.60
2022-08-17T13:19:29.911Z,75.90
2022-08-17T13:22:08.085Z,77.00
2022-08-17T13:24:37.855Z,77.70
2022-08-17T13:27:08.277Z,76.20
2022-08-17T13:29:35.095Z,74.50
2022-08-17T13:32:04.909Z,74.30
2022-08-17T13:34:35.757Z,74.20
2022-08-17T13:37:12.493Z,74.90
2022-08-17T13:39:40.063Z,76.40
2022-08-17T13:42:06.669Z,72.40
2022-08-17T13:44:33.227Z,70.80
2022-08-17T13:46:59.875Z,66.60
2022-08-17T13:49:41.539Z,67.80
2022-08-17T13:52:13.737Z,66.00
2022-08-17T13:54:43.866Z,64.00
2022-08-17T13:57:10.426Z,64.10
2022-08-17T13:59:54.600Z,65.30
2022-08-17T14:02:22.471Z,65.70
2022-08-17T14:04:52.723Z,64.10
2022-08-17T14:07:19.701Z,63.90
2022-08-17T14:09:46.281Z,65.20
2022-08-17T14:12:12.839Z,62.90
2022-08-17T14:14:39.365Z,63.00
2022-08-17T14:17:12.443Z,64.00
2022-08-17T14:19:39.546Z,64.80
2022-08-17T14:22:06.100Z,65.90
2022-08-17T14:24:32.706Z,65.30
2022-08-17T14:26:59.272Z,65.10
2022-08-17T14:29:25.876Z,66.10
2022-08-17T14:31:54.264Z,64.40
2022-08-17T14:34:21.201Z,64.40
2022-08-17T14:36:48.357Z,63.30
2022-08-17T14:39:15.326Z,64.00
2022-08-17T14:41:41.856Z,63.70
2022-08-17T14:44:12.643Z,66.80
2022-08-17T14:46:40.559Z,71.70
2022-08-17T14:49:07.117Z,73.60
2022-08-17T14:51:33.740Z,75.80
2022-08-17T14:54:00.256Z,77.00
2022-08-17T14:56:27.131Z,77.80
2022-08-17T14:58:58.176Z,78.40
2022-08-17T15:01:24.752Z,79.10
2022-08-17T15:03:51.422Z,79.30
2022-08-17T15:06:17.998Z,79.40
2022-08-17T15:08:44.630Z,80.00
2022-08-17T15:11:14.307Z,80.80
2022-08-17T15:13:52.346Z,81.50
2022-08-17T15:16:20.382Z,81.90
2022-08-17T15:18:46.962Z,81.50
2022-08-17T15:21:14.760Z,82.10
2022-08-17T15:23:41.297Z,82.60
2022-08-17T15:26:10.104Z,83.90
2022-08-17T15:28:37.630Z,83.30
2022-08-17T15:31:05.643Z,83.90
2022-08-17T15:33:32.259Z,84.10
2022-08-17T15:35:58.964Z,84.40
2022-08-17T15:38:26.564Z,84.80
2022-08-17T15:40:53.177Z,84.70
2022-08-17T15:43:24.809Z,85.10
2022-08-17T15:45:59.767Z,86.10
2022-08-17T15:48:40.579Z,85.20
2022-08-17T15:51:07.103Z,85.30
2022-08-17T15:53:33.712Z,84.40
2022-08-17T15:56:00.407Z,85.90
2022-08-17T15:58:29.906Z,84.10
2022-08-17T16:01:17.133Z,85.00
2022-08-17T16:04:04.518Z,85.50
2022-08-17T16:06:32.154Z,84.90
2022-08-17T16:09:00.115Z,84.10
2022-08-17T16:11:26.654Z,85.80
2022-08-17T16:13:54.864Z,85.10
2022-08-17T16:16:23.491Z,84.60
2022-08-17T16:18:54.699Z,83.70
2022-08-17T16:21:25.702Z,83.70
2022-08-17T16:23:52.847Z,82.50
2022-08-17T16:26:19.558Z,82.50
2022-08-17T16:28:46.088Z,83.20
2022-08-17T16:31:12.701Z,83.00
2022-08-17T16:33:39.467Z,82.50
2022-08-17T16:36:07.290Z,82.30
2022-08-17T16:38:33.890Z,82.50
2022-08-17T16:41:00.425Z,82.40
2022-08-17T16:43:26.982Z,81.70
2022-08-17T16:45:53.589Z,82.00
2022-08-17T16:48:20.153Z,82.00
2022-08-17T16:51:00.332Z,81.70
2022-08-17T16:53:31.056Z,81.80
2022-08-17T16:55:58.328Z,82.20
2022-08-17T16:58:24.855Z,82.50
2022-08-17T17:00:51.467Z,82.40
2022-08-17T17:03:20.276Z,82.20
2022-08-17T17:05:47.832Z,83.00
2022-08-17T17:08:22.002Z,82.90
2022-08-17T17:10:51.098Z,82.50
2022-08-17T17:13:17.623Z,82.80
2022-08-17T17:15:44.146Z,82.90
2022-08-17T17:18:10.677Z,83.60
2022-08-17T17:20:37.332Z,83.40
2022-08-17T17:23:03.888Z,83.60
2022-08-17T17:25:30.502Z,84.10
2022-08-17T17:27:57.190Z,83.20
2022-08-17T17:30:27.539Z,83.30
2022-08-17T17:32:54.121Z,83.80
2022-08-17T17:35:20.723Z,84.80
2022-08-17T17:37:47.428Z,85.70
2022-08-17T17:40:14.057Z,86.10
2022-08-17T17:42:40.655Z,86.20
2022-08-17T17:45:07.261Z,86.40
2022-08-17T17:47:34.302Z,87.00
2022-08-17T17:50:00.922Z,87.40
2022-08-17T17:52:28.260Z,87.60
2022-08-17T17:54:55.047Z,87.50
2022-08-17T17:57:22.209Z,87.80
2022-08-17T17:59:48.790Z,88.40
2022-08-17T18:02:35.320Z,88.60
2022-08-17T18:05:01.962Z,88.80
2022-08-17T18:07:28.496Z,89.00
2022-08-17T18:09:55.450Z,89.60
2022-08-17T18:12:28.307Z,89.90
2022-08-17T18:14:54.844Z,90.10
2022-08-17T18:17:21.419Z,90.30
2022-08-17T18:19:48.272Z,90.40
2022-08-17T18:22:14.941Z,90.60
2022-08-17T18:24:41.494Z,90.60
2022-08-17T18:27:08.785Z,90.70
2022-08-17T18:29:35.795Z,90.90
2022-08-17T18:32:04.065Z,91.00
2022-08-17T18:34:46.547Z,91.20
2022-08-17T18:37:16.168Z,91.30
2022-08-17T18:39:46.402Z,91.60
2022-08-17T18:42:13.183Z,91.80
2022-08-17T18:44:39.775Z,91.90
2022-08-17T18:47:06.350Z,92.20
2022-08-17T18:49:32.882Z,92.40
2022-08-17T18:51:59.557Z,92.60
2022-08-17T18:54:26.429Z,92.80
2022-08-17T18:56:53.142Z,93.00
2022-08-17T18:59:19.774Z,93.30
2022-08-17T19:01:52.756Z,93.50
2022-08-17T19:04:21.293Z,93.80
2022-08-17T19:06:47.884Z,94.20
2022-08-17T19:09:14.449Z,94.50
2022-08-17T19:11:40.980Z,94.70
2022-08-17T19:14:07.654Z,94.90
2022-08-17T19:16:34.218Z,95.10
2022-08-17T19:19:00.752Z,95.20
2022-08-17T19:21:27.332Z,95.50
2022-08-17T19:23:54.664Z,95.70
2022-08-17T19:26:50.782Z,95.90
2022-08-17T19:29:09.496Z,96.10
2022-08-17T19:31:36.333Z,96.40
2022-08-17T19:34:02.913Z,96.80
2022-08-17T19:36:29.472Z,97.00
2022-08-17T19:38:55.994Z,97.10
2022-08-17T19:41:22.600Z,97.30
2022-08-17T19:43:49.360Z,97.40
2022-08-17T19:46:15.906Z,97.30
2022-08-17T19:48:42.486Z,97.50
2022-08-17T19:51:09.030Z,97.60
2022-08-17T19:54:01.694Z,97.80
2022-08-17T19:56:22.201Z,98.00
2022-08-17T19:58:48.729Z,98.30
2022-08-17T20:01:18.313Z,98.30
2022-08-17T20:03:44.972Z,98.50
2022-08-17T20:06:13.412Z,98.60
2022-08-17T20:08:40.514Z,98.70
2022-08-17T20:11:07.065Z,98.90
2022-08-17T20:13:34.116Z,98.80
2022-08-17T20:16:00.720Z,98.80
2022-08-17T20:18:27.477Z,98.90
2022-08-17T20:20:54.749Z,99.00
2022-08-17T20:23:22.356Z,99.10
2022-08-17T20:25:48.976Z,99.10
2022-08-17T20:28:15.560Z,99.10
2022-08-17T20:30:42.626Z,99.40
2022-08-17T20:33:11.019Z,99.50
2022-08-17T20:35:39.719Z,99.50
2022-08-17T20:38:06.291Z,99.50
2022-08-17T20:40:32.853Z,99.60
2022-08-17T20:42:59.410Z,99.70
2022-08-17T20:45:26.204Z,99.90
2022-08-17T20:48:18.513Z,99.90
2022-08-17T20:50:39.460Z,99.90
2022-08-17T20:53:06.663Z,99.90
2022-08-17T20:55:33.210Z,99.90
2022-08-17T20:58:01.306Z,99.90
2022-08-17T21:00:27.806Z,99.90
2022-08-17T21:02:54.378Z,99.90
2022-08-17T21:05:20.895Z,99.90
2022-08-17T21:07:48.225Z,99.90
2022-08-17T21:10:14.815Z,99.90
2022-08-17T21:12:41.871Z,99.90
2022-08-17T21:15:08.509Z,99.90
2022-08-17T21:17:35.037Z,99.90
2022-08-17T21:20:16.852Z,99.90
2022-08-17T21:22:43.464Z,99.90
2022-08-17T21:25:10.040Z,99.90
2022-08-17T21:27:36.675Z,99.90
2022-08-17T21:30:06.564Z,99.90
2022-08-17T21:32:36.930Z,99.90
2022-08-17T21:35:06.521Z,99.90
2022-08-17T21:37:34.720Z,99.90
2022-08-17T21:40:01.351Z,99.90
2022-08-17T21:42:29.464Z,99.90
2022-08-17T21:44:57.951Z,99.90
2022-08-17T21:47:24.617Z,99.90
2022-08-17T21:49:51.626Z,99.90
2022-08-17T21:52:18.162Z,99.90
2022-08-17T21:54:44.829Z,99.90
2022-08-17T21:57:12.362Z,99.90
2022-08-17T21:59:39.241Z,99.90
2022-08-17T22:02:06.005Z,99.90
2022-08-17T22:04:32.561Z,99.90
2022-08-17T22:06:59.157Z,99.90
2022-08-17T22:09:25.762Z,99.90
2022-08-17T22:11:52.537Z,99.90
2022-08-17T22:14:20.085Z,99.90
2022-08-17T22:16:47.649Z,99.90
2022-08-17T22:19:14.181Z,99.90
2022-08-17T22:21:40.717Z,99.90
2022-08-17T22:24:07.331Z,99.90
2022-08-17T22:26:33.913Z,99.90
2022-08-17T22:29:00.452Z,99.90
2022-08-17T22:31:27.031Z,99.90
2022-08-17T22:33:53.705Z,99.90
2022-08-17T22:36:21.979Z,99.90
2022-08-17T22:38:48.695Z,99.90
2022-08-17T22:41:15.222Z,99.90
2022-08-17T22:43:44.656Z,99.90
2022-08-17T22:46:11.520Z,99.90
2022-08-17T22:48:38.076Z,99.90
2022-08-17T22:51:04.652Z,99.90
2022-08-17T22:53:58.698Z,99.90
2022-08-17T22:56:44.067Z,99.90
2022-08-17T22:59:20.346Z,99.90
2022-08-17T23:01:46.927Z,99.90
2022-08-17T23:04:13.693Z,99.90
2022-08-17T23:06:42.232Z,99.90
2022-08-17T23:09:08.764Z,99.90
2022-08-17T23:11:46.024Z,99.90
2022-08-17T23:14:19.566Z,99.90
2022-08-17T23:16:46.124Z,99.90
2022-08-17T23:19:12.651Z,99.90
2022-08-17T23:21:39.177Z,99.90
2022-08-17T23:24:06.665Z,99.90
2022-08-17T23:26:35.892Z,99.90
2022-08-17T23:29:04.411Z,99.90
2022-08-17T23:31:34.636Z,99.90
2022-08-17T23:34:01.162Z,99.90
2022-08-17T23:36:28.333Z,99.90
2022-08-17T23:38:54.913Z,99.90
2022-08-17T23:41:21.446Z,99.90
2022-08-17T23:43:47.966Z,99.90
2022-08-17T23:46:14.532Z,99.90
2022-08-17T23:48:41.128Z,99.90
2022-08-17T23:51:08.548Z,99.90
2022-08-17T23:53:36.178Z,99.90
2022-08-17T23:56:06.915Z,99.90
2022-08-17T23:58:38.338Z,99.90
